Santa Cruz, CA (95060)

2:11 AM PDT en Septiembre 02, 2014 (GMT -0700)
Walnut/King | Change Station
CLOSE
Current Station
Estación meteorológica personal
Location: Santa Cruz, CA
Altura: 70 ft
Estaciones meteorológicas cercanas

Alt 70 ft 36.97 °N, 122.04 °W | Updated 13 seconds ago

Nublado
Nublado
63.7 ° F
Sensación térmica 63.7 ° F
N
0.0
Viento Variable Viento desde ENE
Gusts 0.0 mph

Hoy
Alta -- | Baja -- ° F
--% Posibilidad de precipitaciones
Ayer
Alta -- | Baja -- ° F
Precip. -- pul
6:39 AM 7:34 PM
Creciente, 49% visible
Presión 29.83 pul
Visibilidad 8.0 Millas
Nubes Nublado 600 ft
Punto de rocío 58 ° F
Humedad 82%
Precipitaciones 0.00 pul
Espesor de la nieve No disponible.
UV 0.0 de una escala de 12
Polen 8.40 de una escala de 12
Calidad del aire No disponible.
Flu Activity No disponible.
SPECI KWVI 020906Z AUTO 08004KT 8SM OVC006 17/15 A2983 RMK AO2 T01720150

More Conditions Fewer Conditions

Presión 29.83 pul
Visibilidad 8.0 Millas
Nubes Nublado 600 ft
Punto de rocío 58 ° F
Humedad 82%
Precipitaciones 0.00 pul
Espesor de la nieve No disponible.
UV 0.0 de una escala de 12
Polen 8.40 de una escala de 12
Calidad del aire No disponible.
Flu Activity No disponible.
SPECI KWVI 020906Z AUTO 08004KT 8SM OVC006 17/15 A2983 RMK AO2 T01720150

More Conditions Fewer Conditions

10-Day Weather Forecast

Almanac

Astronomía

Sep. 02, 2014 Salida Puesta
Hora real 6:39 AM PDT 7:34 PM PDT
Crepúsculo civil 6:13 AM PDT 8:01 PM PDT
Crepúsculo náutico 5:41 AM PDT 8:32 PM PDT
Crepúsculo astronómico 5:09 AM PDT 9:05 PM PDT
Luna 2:19 PM PDT Sin puesta de luna
Horas de luz 13h 48m
Horas de luz
12h 55m
Tomorrow will be 2m 17s shorter.
Creciente, 49% of the Moon is Illuminated
Hoy
Creciente
Sep 2
Cuarto creciente
Sep 8
Luna llena
Sep 15
Cuarto menguante
Sep 24
Nueva

Extremos de hoy

Máximos del estado Bajos del estado

Community

WunderPhotos

Upload Photos

1,749,587 ¡fotos cargadas!

WunderBlogs® & News

Nearby

Grosos de nieve

Estación Profundido Altura
Leavitt Lake 0 in 9400 ft
Blue Lakes 0 in 8000 ft
Forestdale Creek 0 in 8029 ft
Leavitt Meadows 1 in 7200 ft
Echo Peak 0 in 7800 ft

Actividad de terremotos

Ciudad Distance Mag. Tiempo y dato
Yountville, California 97 Millas 2.6 1:15 PM PDT
2014-09-01
Gilroy, California 31 Millas 3.5 9:10 AM PDT
2014-09-01
Green Valley, California 88 Millas 2.5 6:37 AM PDT
2014-08-31
Napa, California 88 Millas 3.2 1:56 AM PDT
2014-08-31
Magnitud mínima muestra es 2,5.

Temperaturas de aguas costeras

Lugar Temperatura
Monterey, CA 66.9 ° F
Redwood City, CA 73.9 ° F

Estaciones meteorológicas cercanas